KASH/ASH METAR and TAF weather

Enter ICAO airport designator
Station Type Date Time Source
KASH METAR 2022/08/12 15:56 UTC NOAA

KASH 121556Z 31008G17KT 10SM CLR 24/10 A2999 RMK AO2 SLP158 T02390100 $


Station Type Date Time Source
KASH Decoded METAR 2022/08/12 15:56 UTC NOAA

Nashua, Boire Field Airport, NH, United States (KASH) 42-46-54N 071-30-53W
Aug 12, 2022 - 11:56 AM EDT / 2022.08.12 1556 UTC
Wind: from the NW (310 degrees) at 9 MPH (8 KT) gusting to 20 MPH (17 KT):0
Visibility: 10 mile(s):0
Sky conditions: clear
Temperature: 75.0 F (23.9 C)
Dew Point: 50.0 F (10.0 C)
Relative Humidity: 41%
Pressure (altimeter): 29.99 in. Hg (1015 hPa)
ob: KASH 121556Z 31008G17KT 10SM CLR 24/10 A2999 RMK AO2 SLP158 T02390100
cycle: 16

Station Type Date Time Source
KASH TAF UTC NOAA

Error!

Example: see airport list